Weather at MidMichigan Health Park Heliport

Public forecast

Using degrees Fahrenheit for public forecast. Weather courtesy of forecast.io.

Closest aviation weather report (METAR) to MidMichigan Health Park Heliport

Closest report is Mount Pleasant Municipal Airport, 0.7 nm (1.3 km) NE. Retrieved 2020/09/26 01:35 UTC (12 minutes ago):

KMOP 260135Z AUTO 00000KT 10SM CLR 18/12 A2992 RMK AO2 T01830117

Closest aviation forecast (TAF) to MidMichigan Health Park Heliport

Closest forecast is MBS International Airport, 29.6 nm (54.8 km) E. Retrieved 2020-09-26 00:22 UTC (1 hour ago):

TAF KMBS 252320Z 2600/2624 19004KT P6SM SKC FM260700 VRB04KT 6SM BR SCT250 TEMPO 2609/2612 1SM BR VV007 FM261400 19008KT P6SM BKN250 FM261900 21012G20KT P6SM BKN200